Time;durP1;ratioP1;P1;durP2;ratioP2;P2;SDS_P1;SDS_P2;PMS_P1;PMS_P2;Temp;Humidity;BMP_temperature;BMP_pressure;BME280_temperature;BME280_humidity;BME280_pressure;Samples;Min_cycle;Max_cycle;Signal;HPM_P1;HPM_P2
2021/12/23 00:00:04;;;;;;;;;;;;;;;;;;4842368;29;19908;-75
2021/12/23 00:02:30;;;;;;;;;;;;;;;;;;4841899;29;20405;-75
2021/12/23 00:04:56;;;;;;;;;;;;;;;;;;4842532;29;19916;-75
2021/12/23 00:07:22;;;;;;;;;;;;;;;;;;4842551;29;19919;-75
2021/12/23 00:12:14;;;;;;;;;;;;;;;;;;4841379;29;19964;-75
2021/12/23 00:14:40;;;;;;;;;;;;;;;;;;4834279;29;19933;-75
2021/12/23 00:23:22;;;;;;;;;;;;;;;;;;4824108;29;20309;-75
2021/12/23 00:25:29;;;;;;;;;;;;;;;;;;4866952;29;19967;-75
2021/12/23 00:27:55;;;;;;;;;;;;;;;;;;4880548;29;19911;-75
2021/12/23 00:30:21;;;;;;;;;;;;;;;;;;4881012;29;19988;-75
2021/12/23 00:32:47;;;;;;;;;;;;;;;;;;4880980;29;19926;-75
2021/12/23 00:35:13;;;;;;;;;;;;;;;;;;4880476;29;19907;-75
2021/12/23 00:37:42;;;;;;;;;;;;;;;;;;4880944;29;19911;-75
2021/12/23 00:40:08;;;;;;;;;;;;;;;;;;4879388;29;19907;-75
2021/12/23 00:42:34;;;;;;;;;;;;;;;;;;4861762;29;19923;-75
2021/12/23 00:45:00;;;;;;;;;;;;;;;;;;4876139;29;19907;-75
2021/12/23 00:47:26;;;;;;;;;;;;;;;;;;4880832;29;19920;-75
2021/12/23 00:49:52;;;;;;;;;;;;;;;;;;4880465;29;20289;-75
2021/12/23 00:52:25;;;;;;;;;;;;;;;;;;4880400;29;20360;-75
2021/12/23 00:54:51;;;;;;;;;;;;;;;;;;4880247;29;19919;-75
2021/12/23 00:57:22;;;;;;;;;;;;;;;;;;4880097;29;19947;-75
2021/12/23 00:59:48;;;;;;;;;;;;;;;;;;4880505;29;20288;-75
2021/12/23 01:02:16;;;;;;;;;;;;;;;;;;4880418;29;19912;-75
2021/12/23 01:04:42;;;;;;;;;;;;;;;;;;4880863;29;19950;-75
2021/12/23 01:07:07;;;;;;;;;;;;;;;;;;4880001;29;19947;-75
2021/12/23 01:09:33;;;;;;;;;;;;;;;;;;4880293;29;19911;-75
2021/12/23 01:11:59;;;;;;;;;;;;;;;;;;4863563;29;19907;-75
2021/12/23 01:14:29;;;;;;;;;;;;;;;;;;4880052;29;19907;-75
2021/12/23 01:19:23;;;;;;;;;;;;;;;;;;4879981;29;20381;-75
2021/12/23 01:21:49;;;;;;;;;;;;;;;;;;4879825;29;19916;-75
2021/12/23 01:24:15;;;;;;;;;;;;;;;;;;4879950;29;19908;-75
2021/12/23 01:26:41;;;;;;;;;;;;;;;;;;4879707;29;20387;-75
2021/12/23 01:29:07;;;;;;;;;;;;;;;;;;4863449;29;20377;-75
2021/12/23 01:31:33;;;;;;;;;;;;;;;;;;4879187;29;19912;-75
2021/12/23 01:33:59;;;;;;;;;;;;;;;;;;4873631;29;19912;-75
2021/12/23 01:36:25;;;;;;;;;;;;;;;;;;4861259;29;19948;-75
2021/12/23 01:38:51;;;;;;;;;;;;;;;;;;4861632;29;19908;-75
2021/12/23 01:41:17;;;;;;;;;;;;;;;;;;4860597;29;19982;-75
2021/12/23 01:43:42;;;;;;;;;;;;;;;;;;4867016;29;20006;-75
2021/12/23 01:46:08;;;;;;;;;;;;;;;;;;4879732;29;19912;-75
2021/12/23 01:48:34;;;;;;;;;;;;;;;;;;4879119;29;19948;-75
2021/12/23 01:51:00;;;;;;;;;;;;;;;;;;4879721;29;20412;-75
2021/12/23 01:53:26;;;;;;;;;;;;;;;;;;4878864;29;19911;-75
2021/12/23 01:55:52;;;;;;;;;;;;;;;;;;4879263;29;19974;-75
2021/12/23 01:58:18;;;;;;;;;;;;;;;;;;4879405;29;19908;-75
2021/12/23 02:00:44;;;;;;;;;;;;;;;;;;4879119;29;19964;-75
2021/12/23 02:03:10;;;;;;;;;;;;;;;;;;4862002;29;20381;-75
2021/12/23 02:05:36;;;;;;;;;;;;;;;;;;4879467;29;19914;-75
2021/12/23 02:08:02;;;;;;;;;;;;;;;;;;4879297;29;19939;-75
2021/12/23 02:10:28;;;;;;;;;;;;;;;;;;4878867;29;19946;-75
2021/12/23 02:12:54;;;;;;;;;;;;;;;;;;4878722;29;19915;-76
2021/12/23 02:15:20;;;;;;;;;;;;;;;;;;4879039;29;19912;-75
2021/12/23 02:17:45;;;;;;;;;;;;;;;;;;4878658;29;19914;-75
2021/12/23 02:20:11;;;;;;;;;;;;;;;;;;4878146;29;19912;-75
2021/12/23 02:22:37;;;;;;;;;;;;;;;;;;4878877;29;19912;-75
2021/12/23 02:25:03;;;;;;;;;;;;;;;;;;4878521;29;19915;-75
2021/12/23 02:27:29;;;;;;;;;;;;;;;;;;4878761;29;19908;-75
2021/12/23 02:29:55;;;;;;;;;;;;;;;;;;4879001;29;19907;-75
2021/12/23 02:32:21;;;;;;;;;;;;;;;;;;4878409;29;20288;-75
2021/12/23 02:34:47;;;;;;;;;;;;;;;;;;4879055;29;20360;-75
2021/12/23 02:37:14;;;;;;;;;;;;;;;;;;4878759;29;19907;-75
2021/12/23 02:39:40;;;;;;;;;;;;;;;;;;4878166;29;20372;-75
2021/12/23 02:42:06;;;;;;;;;;;;;;;;;;4878979;29;19912;-75
2021/12/23 02:44:32;;;;;;;;;;;;;;;;;;4878855;29;19907;-75
2021/12/23 02:46:58;;;;;;;;;;;;;;;;;;4878880;29;20456;-75
2021/12/23 02:49:24;;;;;;;;;;;;;;;;;;4877897;29;20406;-75
2021/12/23 02:51:50;;;;;;;;;;;;;;;;;;4878483;29;19907;-75
2021/12/23 02:54:16;;;;;;;;;;;;;;;;;;4877962;29;19923;-75
2021/12/23 02:56:42;;;;;;;;;;;;;;;;;;4878355;29;20303;-75
2021/12/23 02:59:08;;;;;;;;;;;;;;;;;;4878669;29;20301;-75
2021/12/23 03:01:34;;;;;;;;;;;;;;;;;;4878506;29;19986;-75
2021/12/23 03:04:00;;;;;;;;;;;;;;;;;;4879397;29;19915;-75
2021/12/23 03:06:26;;;;;;;;;;;;;;;;;;4878306;29;19981;-75
2021/12/23 03:08:52;;;;;;;;;;;;;;;;;;4877949;29;19911;-75
2021/12/23 03:11:17;;;;;;;;;;;;;;;;;;4878458;29;19907;-75
2021/12/23 03:13:43;;;;;;;;;;;;;;;;;;4881294;29;20022;-75
2021/12/23 03:16:09;;;;;;;;;;;;;;;;;;4882518;29;19928;-75
2021/12/23 03:18:35;;;;;;;;;;;;;;;;;;4882230;29;19964;-75
2021/12/23 03:21:01;;;;;;;;;;;;;;;;;;4881907;29;19908;-75
2021/12/23 03:23:27;;;;;;;;;;;;;;;;;;4882472;29;20292;-75
2021/12/23 03:25:53;;;;;;;;;;;;;;;;;;4881987;29;19915;-75
2021/12/23 03:28:19;;;;;;;;;;;;;;;;;;4881629;29;19908;-75
2021/12/23 03:30:45;;;;;;;;;;;;;;;;;;4881066;29;20388;-75
2021/12/23 03:33:11;;;;;;;;;;;;;;;;;;4881337;29;20380;-75
2021/12/23 03:35:36;;;;;;;;;;;;;;;;;;4881440;29;19924;-75
2021/12/23 03:38:02;;;;;;;;;;;;;;;;;;4882068;29;19908;-75
2021/12/23 03:40:28;;;;;;;;;;;;;;;;;;4881725;29;19926;-75
2021/12/23 03:42:54;;;;;;;;;;;;;;;;;;4882175;29;19911;-75
2021/12/23 03:45:20;;;;;;;;;;;;;;;;;;4881658;29;19923;-75
2021/12/23 03:47:48;;;;;;;;;;;;;;;;;;4881424;29;19919;-75
2021/12/23 03:50:15;;;;;;;;;;;;;;;;;;4881211;29;19963;-75
2021/12/23 03:52:41;;;;;;;;;;;;;;;;;;4881910;29;20472;-75
2021/12/23 03:55:07;;;;;;;;;;;;;;;;;;4881427;29;19916;-75
2021/12/23 03:57:32;;;;;;;;;;;;;;;;;;4881453;29;19908;-75
2021/12/23 03:59:58;;;;;;;;;;;;;;;;;;4881404;29;20391;-75
2021/12/23 04:02:24;;;;;;;;;;;;;;;;;;4880583;29;19950;-75
2021/12/23 04:04:50;;;;;;;;;;;;;;;;;;4880154;29;20006;-75
2021/12/23 04:07:16;;;;;;;;;;;;;;;;;;4881507;29;19916;-75
2021/12/23 04:09:42;;;;;;;;;;;;;;;;;;4864273;29;20002;-75
2021/12/23 04:12:08;;;;;;;;;;;;;;;;;;4881550;29;20055;-75
2021/12/23 04:14:34;;;;;;;;;;;;;;;;;;4881048;29;20336;-75
2021/12/23 04:17:00;;;;;;;;;;;;;;;;;;4880696;29;19916;-75
2021/12/23 04:19:30;;;;;;;;;;;;;;;;;;4879758;29;19935;-75
2021/12/23 04:21:57;;;;;;;;;;;;;;;;;;4880569;29;19916;-75
2021/12/23 04:24:23;;;;;;;;;;;;;;;;;;4880683;29;19912;-75
2021/12/23 04:26:48;;;;;;;;;;;;;;;;;;4881169;29;20482;-75
2021/12/23 04:29:14;;;;;;;;;;;;;;;;;;4881412;29;19908;-75
2021/12/23 04:31:40;;;;;;;;;;;;;;;;;;4881034;29;19908;-75
2021/12/23 04:34:06;;;;;;;;;;;;;;;;;;4880429;29;19954;-75
2021/12/23 04:36:32;;;;;;;;;;;;;;;;;;4880906;29;19908;-75
2021/12/23 04:39:01;;;;;;;;;;;;;;;;;;4880903;29;20144;-75
2021/12/23 04:41:27;;;;;;;;;;;;;;;;;;4880782;29;20368;-75
2021/12/23 04:43:52;;;;;;;;;;;;;;;;;;4880743;29;19964;-75
2021/12/23 04:46:18;;;;;;;;;;;;;;;;;;4881260;29;19914;-75
2021/12/23 04:48:45;;;;;;;;;;;;;;;;;;4878450;29;19930;-75
2021/12/23 04:51:11;;;;;;;;;;;;;;;;;;4863991;29;19919;-75
2021/12/23 04:53:37;;;;;;;;;;;;;;;;;;4880396;29;19912;-75
2021/12/23 04:56:02;;;;;;;;;;;;;;;;;;4880477;29;19967;-75
2021/12/23 04:58:28;;;;;;;;;;;;;;;;;;4880750;29;19911;-75
2021/12/23 05:00:54;;;;;;;;;;;;;;;;;;4880497;29;19935;-75
2021/12/23 05:03:20;;;;;;;;;;;;;;;;;;4879554;29;19916;-75
2021/12/23 05:05:46;;;;;;;;;;;;;;;;;;4880267;29;19916;-75
2021/12/23 05:08:12;;;;;;;;;;;;;;;;;;4880299;29;20283;-75
2021/12/23 05:10:38;;;;;;;;;;;;;;;;;;4863802;29;19910;-75
2021/12/23 05:13:04;;;;;;;;;;;;;;;;;;4879951;29;19907;-75
2021/12/23 05:15:30;;;;;;;;;;;;;;;;;;4880209;29;20307;-75
2021/12/23 05:17:56;;;;;;;;;;;;;;;;;;4879875;29;19907;-74
2021/12/23 05:20:22;;;;;;;;;;;;;;;;;;4880663;29;19981;-74
2021/12/23 05:22:47;;;;;;;;;;;;;;;;;;4879757;29;19923;-74
2021/12/23 05:25:13;;;;;;;;;;;;;;;;;;4879984;29;19908;-74
2021/12/23 05:27:39;;;;;;;;;;;;;;;;;;4879820;29;19907;-74
2021/12/23 05:30:05;;;;;;;;;;;;;;;;;;4880235;29;19912;-74
2021/12/23 05:32:31;;;;;;;;;;;;;;;;;;4879757;29;20353;-75
2021/12/23 05:34:57;;;;;;;;;;;;;;;;;;4877730;29;19936;-74
2021/12/23 05:37:23;;;;;;;;;;;;;;;;;;4879790;29;19934;-74
2021/12/23 05:39:49;;;;;;;;;;;;;;;;;;4879886;29;19937;-75
2021/12/23 05:42:15;;;;;;;;;;;;;;;;;;4878554;29;19919;-74
2021/12/23 05:44:41;;;;;;;;;;;;;;;;;;4862853;29;19911;-74
2021/12/23 05:47:07;;;;;;;;;;;;;;;;;;4879391;29;19914;-74
2021/12/23 05:49:33;;;;;;;;;;;;;;;;;;4879835;29;20277;-74
2021/12/23 05:51:59;;;;;;;;;;;;;;;;;;4879306;29;19907;-74
2021/12/23 05:54:25;;;;;;;;;;;;;;;;;;4878731;29;19962;-74
2021/12/23 05:56:50;;;;;;;;;;;;;;;;;;4879403;29;19990;-75
2021/12/23 05:59:16;;;;;;;;;;;;;;;;;;4879519;29;19912;-74
2021/12/23 06:01:42;;;;;;;;;;;;;;;;;;4861161;29;19916;-74
2021/12/23 06:04:08;;;;;;;;;;;;;;;;;;4879324;29;19907;-75
2021/12/23 06:06:34;;;;;;;;;;;;;;;;;;4879164;29;19911;-75
2021/12/23 06:09:00;;;;;;;;;;;;;;;;;;4868502;29;19955;-76
2021/12/23 06:11:26;;;;;;;;;;;;;;;;;;4869578;29;20440;-74
2021/12/23 06:13:52;;;;;;;;;;;;;;;;;;4879461;29;19907;-74
2021/12/23 06:16:18;;;;;;;;;;;;;;;;;;4877717;29;19982;-74
2021/12/23 06:18:43;;;;;;;;;;;;;;;;;;4868399;29;19990;-75
2021/12/23 06:21:09;;;;;;;;;;;;;;;;;;4859932;29;19916;-75
2021/12/23 06:23:35;;;;;;;;;;;;;;;;;;4865447;29;19916;-74
2021/12/23 06:26:01;;;;;;;;;;;;;;;;;;4869335;29;19911;-75
2021/12/23 06:28:27;;;;;;;;;;;;;;;;;;4866263;29;19908;-75
2021/12/23 06:30:53;;;;;;;;;;;;;;;;;;4875070;29;19907;-75
2021/12/23 06:33:19;;;;;;;;;;;;;;;;;;4863928;29;20469;-75
2021/12/23 06:35:45;;;;;;;;;;;;;;;;;;4867951;29;19908;-74
2021/12/23 06:38:11;;;;;;;;;;;;;;;;;;4860560;29;19909;-75
2021/12/23 06:40:37;;;;;;;;;;;;;;;;;;4860484;29;19919;-74
2021/12/23 06:43:02;;;;;;;;;;;;;;;;;;4860675;29;20497;-75
2021/12/23 06:45:28;;;;;;;;;;;;;;;;;;4860548;29;19912;-75
2021/12/23 06:47:54;;;;;;;;;;;;;;;;;;4860587;29;19916;-75
2021/12/23 06:50:22;;;;;;;;;;;;;;;;;;4875823;29;19912;-75
2021/12/23 06:52:48;;;;;;;;;;;;;;;;;;4860737;29;20006;-75
2021/12/23 06:55:14;;;;;;;;;;;;;;;;;;4860581;29;19928;-75
2021/12/23 06:57:40;;;;;;;;;;;;;;;;;;4844102;29;19908;-75
2021/12/23 07:00:06;;;;;;;;;;;;;;;;;;4860363;29;19908;-75
2021/12/23 07:02:34;;;;;;;;;;;;;;;;;;4856952;29;19915;-75
2021/12/23 07:05:00;;;;;;;;;;;;;;;;;;4879198;29;20426;-75
2021/12/23 07:07:39;;;;;;;;;;;;;;;;;;4878999;29;19952;-75
2021/12/23 07:10:05;;;;;;;;;;;;;;;;;;4879071;29;19967;-75
2021/12/23 07:12:31;;;;;;;;;;;;;;;;;;4878573;29;20432;-75
2021/12/23 07:14:59;;;;;;;;;;;;;;;;;;4878822;29;19912;-75
2021/12/23 07:17:25;;;;;;;;;;;;;;;;;;4878215;29;19912;-75
2021/12/23 07:19:51;;;;;;;;;;;;;;;;;;4878863;29;19914;-74
2021/12/23 07:22:17;;;;;;;;;;;;;;;;;;4878221;29;20257;-75
2021/12/23 07:24:43;;;;;;;;;;;;;;;;;;4878292;29;19943;-75
2021/12/23 07:27:08;;;;;;;;;;;;;;;;;;4878641;29;20002;-75
2021/12/23 07:29:34;;;;;;;;;;;;;;;;;;4878274;29;19914;-75
2021/12/23 07:32:02;;;;;;;;;;;;;;;;;;4877549;29;20045;-74
2021/12/23 07:34:28;;;;;;;;;;;;;;;;;;4878679;29;19994;-74
2021/12/23 07:36:54;;;;;;;;;;;;;;;;;;4878449;29;19935;-74
2021/12/23 07:39:20;;;;;;;;;;;;;;;;;;4878096;29;19959;-74
2021/12/23 07:41:46;;;;;;;;;;;;;;;;;;4861676;29;20006;-74
2021/12/23 07:44:20;;;;;;;;;;;;;;;;;;4877717;29;19912;-75
2021/12/23 07:46:46;;;;;;;;;;;;;;;;;;4878550;29;19911;-74
2021/12/23 07:49:11;;;;;;;;;;;;;;;;;;4875644;29;20448;-75
2021/12/23 07:51:37;;;;;;;;;;;;;;;;;;4878055;29;19943;-75
2021/12/23 07:54:03;;;;;;;;;;;;;;;;;;4861459;29;20020;-75
2021/12/23 07:56:29;;;;;;;;;;;;;;;;;;4859882;29;20284;-74
2021/12/23 07:58:55;;;;;;;;;;;;;;;;;;4863104;29;19915;-74
2021/12/23 08:01:21;;;;;;;;;;;;;;;;;;4864594;29;19915;-74
2021/12/23 08:03:47;;;;;;;;;;;;;;;;;;4881605;29;20284;-74
2021/12/23 08:06:13;;;;;;;;;;;;;;;;;;4871949;29;19956;-74
2021/12/23 08:08:39;;;;;;;;;;;;;;;;;;4875554;29;19987;-74
2021/12/23 08:11:06;;;;;;;;;;;;;;;;;;4881183;29;19907;-74
2021/12/23 08:13:32;;;;;;;;;;;;;;;;;;4880660;29;19972;-74
2021/12/23 08:15:59;;;;;;;;;;;;;;;;;;4880087;29;19911;-74
2021/12/23 08:18:24;;;;;;;;;;;;;;;;;;4883902;29;19933;-75
2021/12/23 08:20:50;;;;;;;;;;;;;;;;;;4865397;29;19915;-73
2021/12/23 08:23:16;;;;;;;;;;;;;;;;;;4878219;29;19930;-74
2021/12/23 08:25:42;;;;;;;;;;;;;;;;;;4880860;29;19915;-74
2021/12/23 08:28:09;;;;;;;;;;;;;;;;;;4880339;29;19908;-74
2021/12/23 08:30:35;;;;;;;;;;;;;;;;;;4874485;29;19908;-74
2021/12/23 08:33:01;;;;;;;;;;;;;;;;;;4878999;29;19918;-73
2021/12/23 08:35:27;;;;;;;;;;;;;;;;;;4875850;29;19911;-74
2021/12/23 08:37:53;;;;;;;;;;;;;;;;;;4866393;29;20280;-74
2021/12/23 08:40:19;;;;;;;;;;;;;;;;;;4879140;29;20376;-74
2021/12/23 08:42:45;;;;;;;;;;;;;;;;;;4879946;29;20026;-74
2021/12/23 08:45:11;;;;;;;;;;;;;;;;;;4880688;29;19916;-74
2021/12/23 08:47:37;;;;;;;;;;;;;;;;;;4880579;29;20384;-74
2021/12/23 08:50:02;;;;;;;;;;;;;;;;;;4880523;29;19916;-74
2021/12/23 08:52:28;;;;;;;;;;;;;;;;;;4880925;29;19908;-74
2021/12/23 08:54:54;;;;;;;;;;;;;;;;;;4879656;29;19913;-74
2021/12/23 08:57:20;;;;;;;;;;;;;;;;;;4879834;29;19926;-74
2021/12/23 08:59:46;;;;;;;;;;;;;;;;;;4880042;29;20435;-74
2021/12/23 09:02:12;;;;;;;;;;;;;;;;;;4880401;29;19912;-74
2021/12/23 09:04:38;;;;;;;;;;;;;;;;;;4879326;29;19912;-74
2021/12/23 09:07:04;;;;;;;;;;;;;;;;;;4879182;29;20341;-74
2021/12/23 09:09:32;;;;;;;;;;;;;;;;;;4873883;29;19912;-74
2021/12/23 09:11:58;;;;;;;;;;;;;;;;;;4872142;29;19912;-74
2021/12/23 09:14:24;;;;;;;;;;;;;;;;;;4861560;29;19908;-74
2021/12/23 09:16:50;;;;;;;;;;;;;;;;;;4862028;29;19908;-74
2021/12/23 09:19:16;;;;;;;;;;;;;;;;;;4861602;29;19999;-73
2021/12/23 09:21:42;;;;;;;;;;;;;;;;;;4875411;29;20377;-73
2021/12/23 09:24:08;;;;;;;;;;;;;;;;;;4868655;29;19912;-74
2021/12/23 09:26:44;;;;;;;;;;;;;;;;;;4876886;29;19963;-73
2021/12/23 09:32:38;;;;;;;;;;;;;;;;;;4864396;29;19908;-73
2021/12/23 09:34:40;;;;;;;;;;;;;;;;;;4861292;29;19919;-73
2021/12/23 09:37:06;;;;;;;;;;;;;;;;;;4875357;29;19911;-73
2021/12/23 09:39:32;;;;;;;;;;;;;;;;;;4862366;29;19984;-74
2021/12/23 09:41:58;;;;;;;;;;;;;;;;;;4879610;29;19944;-74
2021/12/23 09:44:24;;;;;;;;;;;;;;;;;;4879788;29;19914;-73
2021/12/23 09:46:49;;;;;;;;;;;;;;;;;;4877997;29;20029;-75
2021/12/23 09:49:15;;;;;;;;;;;;;;;;;;4874242;29;20014;-73
2021/12/23 09:51:41;;;;;;;;;;;;;;;;;;4879574;29;19908;-74
2021/12/23 09:54:07;;;;;;;;;;;;;;;;;;4879149;29;19908;-73
2021/12/23 09:56:33;;;;;;;;;;;;;;;;;;4879176;29;20357;-73
2021/12/23 09:58:59;;;;;;;;;;;;;;;;;;4879617;29;19955;-73
2021/12/23 10:01:25;;;;;;;;;;;;;;;;;;4879092;29;19998;-73
2021/12/23 10:03:51;;;;;;;;;;;;;;;;;;4879889;29;20006;-72
2021/12/23 10:06:17;;;;;;;;;;;;;;;;;;4879555;29;19908;-72
2021/12/23 10:08:43;;;;;;;;;;;;;;;;;;4879016;29;19916;-72
2021/12/23 10:11:18;;;;;;;;;;;;;;;;;;4879178;29;20329;-73
2021/12/23 10:37:29;;;;;;;;;;;;;;;;;;4877766;29;19912;-72
2021/12/23 10:39:55;;;;;;;;;;;;;;;;;;4878556;29;19916;-72
2021/12/23 10:42:21;;;;;;;;;;;;;;;;;;4878157;29;19971;-72
2021/12/23 10:44:46;;;;;;;;;;;;;;;;;;4878666;29;20330;-72
2021/12/23 10:47:12;;;;;;;;;;;;;;;;;;4862028;29;19912;-72
2021/12/23 10:49:42;;;;;;;;;;;;;;;;;;4876911;29;19923;-72
2021/12/23 10:52:30;;;;;;;;;;;;;;;;;;4856942;29;19912;-73
2021/12/23 11:00:07;;;;;;;;;;;;;;;;;;4878156;29;19922;-73
2021/12/23 11:02:36;;;;;;;;;;;;;;;;;;4878371;29;19912;-73
2021/12/23 11:07:31;;;;;;;;;;;;;;;;;;4860558;29;20317;-73
2021/12/23 11:29:51;;;;;;;;;;;;;;;;;;4862718;29;20408;-73
2021/12/23 11:37:48;;;;;;;;;;;;;;;;;;4831991;29;19915;-74
2021/12/23 11:40:50;;;;;;;;;;;;;;;;;;4825447;29;19909;-74
2021/12/23 11:43:30;;;;;;;;;;;;;;;;;;4824779;29;19913;-73
2021/12/23 11:45:56;;;;;;;;;;;;;;;;;;4839572;29;20302;-74
2021/12/23 11:48:22;;;;;;;;;;;;;;;;;;4825055;29;19920;-74
2021/12/23 11:51:01;;;;;;;;;;;;;;;;;;4840052;29;19912;-73
2021/12/23 11:53:27;;;;;;;;;;;;;;;;;;4840366;29;19919;-74
2021/12/23 11:55:53;;;;;;;;;;;;;;;;;;4840064;29;19915;-74
2021/12/23 11:58:19;;;;;;;;;;;;;;;;;;4840420;29;19909;-74
2021/12/23 12:00:45;;;;;;;;;;;;;;;;;;4836591;29;19909;-74
2021/12/23 12:03:11;;;;;;;;;;;;;;;;;;4822771;29;19912;-74
2021/12/23 12:05:37;;;;;;;;;;;;;;;;;;4823242;29;19913;-74
2021/12/23 12:08:02;;;;;;;;;;;;;;;;;;4838477;29;19912;-74
2021/12/23 12:10:28;;;;;;;;;;;;;;;;;;4843183;29;20377;-74
2021/12/23 12:12:54;;;;;;;;;;;;;;;;;;4880633;29;19998;-74
2021/12/23 12:15:20;;;;;;;;;;;;;;;;;;4879814;29;19915;-73
2021/12/23 12:17:48;;;;;;;;;;;;;;;;;;4880705;29;19908;-74
2021/12/23 12:20:33;;;;;;;;;;;;;;;;;;4863612;29;19908;-74
2021/12/23 12:22:59;;;;;;;;;;;;;;;;;;4880198;29;19912;-74
2021/12/23 12:25:25;;;;;;;;;;;;;;;;;;4879296;29;20030;-74
2021/12/23 12:27:51;;;;;;;;;;;;;;;;;;4879462;29;19912;-74
2021/12/23 12:30:21;;;;;;;;;;;;;;;;;;4862916;29;19918;-74
2021/12/23 12:32:47;;;;;;;;;;;;;;;;;;4879987;29;19963;-74
2021/12/23 12:35:13;;;;;;;;;;;;;;;;;;4853386;29;19998;-73
2021/12/23 12:37:39;;;;;;;;;;;;;;;;;;4879192;29;19935;-73
2021/12/23 12:40:05;;;;;;;;;;;;;;;;;;4862639;29;19912;-73
2021/12/23 12:42:34;;;;;;;;;;;;;;;;;;4878662;29;20396;-73
2021/12/23 12:45:04;;;;;;;;;;;;;;;;;;4870552;29;19908;-73
2021/12/23 12:47:36;;;;;;;;;;;;;;;;;;4822921;29;1423875;-74
2021/12/23 12:50:02;;;;;;;;;;;;;;;;;;4863572;29;20308;-73
2021/12/23 12:52:28;;;;;;;;;;;;;;;;;;4864974;29;19916;-74
2021/12/23 12:54:54;;;;;;;;;;;;;;;;;;4857272;29;19912;-73
2021/12/23 12:57:20;;;;;;;;;;;;;;;;;;4863689;29;19980;-74
2021/12/23 12:59:46;;;;;;;;;;;;;;;;;;4875000;29;19912;-74
2021/12/23 13:02:12;;;;;;;;;;;;;;;;;;4872658;29;19915;-74
2021/12/23 13:04:43;;;;;;;;;;;;;;;;;;4872484;29;19915;-74
2021/12/23 13:07:09;;;;;;;;;;;;;;;;;;4872908;29;19915;-74
2021/12/23 13:09:35;;;;;;;;;;;;;;;;;;4870838;29;20409;-75
2021/12/23 13:12:01;;;;;;;;;;;;;;;;;;4868200;29;19976;-74
2021/12/23 13:14:27;;;;;;;;;;;;;;;;;;4871505;29;19908;-74
2021/12/23 13:16:53;;;;;;;;;;;;;;;;;;4872685;29;20440;-74
2021/12/23 13:19:19;;;;;;;;;;;;;;;;;;4873057;29;19920;-74
2021/12/23 13:21:45;;;;;;;;;;;;;;;;;;4854939;29;19943;-74
2021/12/23 13:24:11;;;;;;;;;;;;;;;;;;4870744;29;19912;-74
2021/12/23 13:26:37;;;;;;;;;;;;;;;;;;4873334;29;19922;-74
2021/12/23 13:29:05;;;;;;;;;;;;;;;;;;4871262;29;19912;-73
2021/12/23 13:31:31;;;;;;;;;;;;;;;;;;4869603;29;19911;-72
2021/12/23 13:33:57;;;;;;;;;;;;;;;;;;4856589;29;19916;-72
2021/12/23 13:36:23;;;;;;;;;;;;;;;;;;4872579;29;20262;-74
2021/12/23 13:38:49;;;;;;;;;;;;;;;;;;4870649;29;20652;-73
2021/12/23 13:41:15;;;;;;;;;;;;;;;;;;4874946;29;19918;-73
2021/12/23 13:43:41;;;;;;;;;;;;;;;;;;4874198;29;19967;-74
2021/12/23 13:46:07;;;;;;;;;;;;;;;;;;4868890;29;19911;-74
2021/12/23 13:48:33;;;;;;;;;;;;;;;;;;4871205;29;19920;-74
2021/12/23 13:50:59;;;;;;;;;;;;;;;;;;4870361;29;19920;-73
2021/12/23 13:53:24;;;;;;;;;;;;;;;;;;4867729;29;19920;-73
2021/12/23 13:55:50;;;;;;;;;;;;;;;;;;4869913;29;20262;-73
2021/12/23 13:58:17;;;;;;;;;;;;;;;;;;4876934;29;20333;-74
2021/12/23 14:00:42;;;;;;;;;;;;;;;;;;4868725;29;19980;-74
2021/12/23 14:03:08;;;;;;;;;;;;;;;;;;4862094;29;20379;-74
2021/12/23 14:05:39;;;;;;;;;;;;;;;;;;4875105;29;19912;-74
2021/12/23 14:08:05;;;;;;;;;;;;;;;;;;4861190;29;19916;-78
2021/12/23 14:10:32;;;;;;;;;;;;;;;;;;4848262;29;19912;-74
2021/12/23 14:12:58;;;;;;;;;;;;;;;;;;4879871;29;19907;-77
2021/12/23 14:15:25;;;;;;;;;;;;;;;;;;4878926;29;19912;-74
2021/12/23 14:17:53;;;;;;;;;;;;;;;;;;4879300;29;20055;-73
2021/12/23 14:23:15;;;;;;;;;;;;;;;;;;4879880;29;19939;-73
2021/12/23 14:25:41;;;;;;;;;;;;;;;;;;4879645;29;19966;-73
2021/12/23 14:28:07;;;;;;;;;;;;;;;;;;4879354;29;19912;-73
2021/12/23 14:30:33;;;;;;;;;;;;;;;;;;4879273;29;19908;-73
2021/12/23 14:32:59;;;;;;;;;;;;;;;;;;4878566;29;19911;-73
2021/12/23 14:35:25;;;;;;;;;;;;;;;;;;4878896;29;19907;-73
2021/12/23 14:37:51;;;;;;;;;;;;;;;;;;4879021;29;19918;-73
2021/12/23 14:40:16;;;;;;;;;;;;;;;;;;4879822;29;19915;-73
2021/12/23 14:42:42;;;;;;;;;;;;;;;;;;4878055;29;20035;-74
2021/12/23 14:45:08;;;;;;;;;;;;;;;;;;4875727;29;19947;-74
2021/12/23 14:47:34;;;;;;;;;;;;;;;;;;4878179;29;19990;-74
2021/12/23 14:52:26;;;;;;;;;;;;;;;;;;4879176;29;19908;-74
2021/12/23 14:54:52;;;;;;;;;;;;;;;;;;4879202;29;19907;-74
2021/12/23 14:57:18;;;;;;;;;;;;;;;;;;4875377;29;19912;-74
2021/12/23 14:59:44;;;;;;;;;;;;;;;;;;4874862;29;19916;-74
2021/12/23 15:02:10;;;;;;;;;;;;;;;;;;4866887;29;19911;-74
2021/12/23 15:04:36;;;;;;;;;;;;;;;;;;4878418;29;19912;-74
2021/12/23 15:07:02;;;;;;;;;;;;;;;;;;4879478;29;19959;-74
2021/12/23 15:09:29;;;;;;;;;;;;;;;;;;4865132;29;20038;-74
2021/12/23 15:11:54;;;;;;;;;;;;;;;;;;4882718;29;19990;-74
2021/12/23 15:14:20;;;;;;;;;;;;;;;;;;4883142;29;19990;-74
2021/12/23 15:16:46;;;;;;;;;;;;;;;;;;4882856;29;20445;-74
2021/12/23 15:19:34;;;;;;;;;;;;;;;;;;4882866;29;19907;-74
2021/12/23 15:22:00;;;;;;;;;;;;;;;;;;4883226;29;19912;-74
2021/12/23 15:24:26;;;;;;;;;;;;;;;;;;4882701;29;20040;-74
2021/12/23 15:26:56;;;;;;;;;;;;;;;;;;4882349;29;20246;-74
2021/12/23 15:29:22;;;;;;;;;;;;;;;;;;4882830;29;20277;-74
2021/12/23 15:31:47;;;;;;;;;;;;;;;;;;4882425;29;20042;-74
2021/12/23 15:34:13;;;;;;;;;;;;;;;;;;4882809;29;19912;-74
2021/12/23 15:36:39;;;;;;;;;;;;;;;;;;4882467;29;20265;-74
2021/12/23 15:39:05;;;;;;;;;;;;;;;;;;4882947;29;19908;-74
2021/12/23 15:41:31;;;;;;;;;;;;;;;;;;4882181;29;19908;-74
2021/12/23 15:43:57;;;;;;;;;;;;;;;;;;4882458;29;19915;-73
2021/12/23 15:46:23;;;;;;;;;;;;;;;;;;4882429;29;19907;-72
2021/12/23 15:48:49;;;;;;;;;;;;;;;;;;4881986;29;19951;-71
2021/12/23 15:51:15;;;;;;;;;;;;;;;;;;4882306;29;20347;-72
2021/12/23 15:53:41;;;;;;;;;;;;;;;;;;4882196;29;20006;-72
2021/12/23 15:56:06;;;;;;;;;;;;;;;;;;4882139;29;19959;-72
2021/12/23 15:58:34;;;;;;;;;;;;;;;;;;4858913;29;20330;-72
2021/12/23 16:01:00;;;;;;;;;;;;;;;;;;4868521;29;20264;-72
2021/12/23 16:03:26;;;;;;;;;;;;;;;;;;4880463;29;19922;-73
2021/12/23 16:08:37;;;;;;;;;;;;;;;;;;4874819;29;19919;-72
2021/12/23 16:11:03;;;;;;;;;;;;;;;;;;4862723;29;19912;-72
2021/12/23 16:13:29;;;;;;;;;;;;;;;;;;4876246;29;19923;-72
2021/12/23 16:15:55;;;;;;;;;;;;;;;;;;4877266;29;19943;-72
2021/12/23 16:18:20;;;;;;;;;;;;;;;;;;4880917;29;19915;-72
2021/12/23 16:20:46;;;;;;;;;;;;;;;;;;4875740;29;19907;-73
2021/12/23 16:23:12;;;;;;;;;;;;;;;;;;4861483;29;20329;-72
2021/12/23 16:25:38;;;;;;;;;;;;;;;;;;4873726;29;19919;-72
2021/12/23 16:28:04;;;;;;;;;;;;;;;;;;4880234;29;19916;-72
2021/12/23 16:30:30;;;;;;;;;;;;;;;;;;4881390;29;19912;-72
2021/12/23 16:32:56;;;;;;;;;;;;;;;;;;4877729;29;19915;-72
2021/12/23 16:35:22;;;;;;;;;;;;;;;;;;4881266;29;19911;-72
2021/12/23 16:37:48;;;;;;;;;;;;;;;;;;4881197;29;20400;-72
2021/12/23 16:40:14;;;;;;;;;;;;;;;;;;4880586;29;20329;-72
2021/12/23 16:42:41;;;;;;;;;;;;;;;;;;4880977;29;19918;-75
2021/12/23 16:45:07;;;;;;;;;;;;;;;;;;4872006;29;19912;-72
2021/12/23 16:47:32;;;;;;;;;;;;;;;;;;4880030;29;19934;-72
2021/12/23 16:49:58;;;;;;;;;;;;;;;;;;4879515;29;19916;-73
2021/12/23 16:52:24;;;;;;;;;;;;;;;;;;4877410;29;19952;-72
2021/12/23 16:54:56;;;;;;;;;;;;;;;;;;4876315;29;20474;-72
2021/12/23 16:57:33;;;;;;;;;;;;;;;;;;4875070;29;19915;-73
2021/12/23 16:59:59;;;;;;;;;;;;;;;;;;4862216;29;19908;-73
2021/12/23 17:02:25;;;;;;;;;;;;;;;;;;4867820;29;19923;-73
2021/12/23 17:04:51;;;;;;;;;;;;;;;;;;4880292;29;19927;-74
2021/12/23 17:07:17;;;;;;;;;;;;;;;;;;4878430;29;19911;-72
2021/12/23 17:09:43;;;;;;;;;;;;;;;;;;4880720;29;20036;-74
2021/12/23 17:12:09;;;;;;;;;;;;;;;;;;4880701;29;19936;-72
2021/12/23 17:14:35;;;;;;;;;;;;;;;;;;4880168;29;19912;-72
2021/12/23 17:17:01;;;;;;;;;;;;;;;;;;4880823;29;19907;-72
2021/12/23 17:19:31;;;;;;;;;;;;;;;;;;4880957;29;19918;-72
2021/12/23 17:21:57;;;;;;;;;;;;;;;;;;4874809;29;19915;-72
2021/12/23 17:24:24;;;;;;;;;;;;;;;;;;4878147;29;19912;-72
2021/12/23 17:26:52;;;;;;;;;;;;;;;;;;4869984;29;19908;-72
2021/12/23 17:29:18;;;;;;;;;;;;;;;;;;4862482;29;19951;-73
2021/12/23 17:31:43;;;;;;;;;;;;;;;;;;4849413;29;19959;-73
2021/12/23 17:34:09;;;;;;;;;;;;;;;;;;4863343;29;20268;-73
2021/12/23 17:36:37;;;;;;;;;;;;;;;;;;4844847;29;19908;-73
2021/12/23 17:39:03;;;;;;;;;;;;;;;;;;4861770;29;19999;-72
2021/12/23 17:41:28;;;;;;;;;;;;;;;;;;4873821;29;20612;-72
2021/12/23 17:43:54;;;;;;;;;;;;;;;;;;4877026;29;19943;-73
2021/12/23 17:46:20;;;;;;;;;;;;;;;;;;4880339;29;19998;-73
2021/12/23 17:48:46;;;;;;;;;;;;;;;;;;4879804;29;20312;-72
2021/12/23 17:51:12;;;;;;;;;;;;;;;;;;4863037;29;19914;-73
2021/12/23 17:53:39;;;;;;;;;;;;;;;;;;4864211;29;19912;-72
2021/12/23 17:56:07;;;;;;;;;;;;;;;;;;4867046;29;19907;-72
2021/12/23 17:58:33;;;;;;;;;;;;;;;;;;4870996;29;19964;-73